No particular awareness of the weather is required.    There are no Weather-warnings

My Other Sites:

SYKIA HOMEWEATHERSTATIONsikeaweather.alinos.eu

SYKIA METEOTEMPLATEsykiameteo.alinos.eu

alinos.eualinos.eu



Nearby METAR Reports

   
LGEL - Elefsis (hel-Afb, Greece
Distance from station: E 77 km
Updated: 22-07-2019 02:20
Clear  
Clear  
   Wind: varies 5.6 km/h
Wind: varies 5.6 km/h
Temperature: 26°C
Dew Point: 12°C
Humidity: 42%
Barometer: 1015 hPa
Visibility: More than 10 km
Cloud details: Clear
LGEL 212320Z VRB03KT CAVOK 26/12 Q1015
LGRX - Araxos (civ/Afb), Greece
Distance from station: W 110 km
Updated: 22-07-2019 02:50
Clear  
Clear  
   Wind: Calm
Wind: Calm
Temperature: 22°C
Dew Point: 17°C
Humidity: 73%
Barometer: 1017 hPa
Visibility: More than 10 km
Cloud details: Clear
LGRX 212350Z 00000KT CAVOK 22/17 Q1017
LGAV - Athens/Elef-Ven, Greece
Distance from station: E 113 km
Updated: 22-07-2019 02:50
Clear  
Clear  
   Wind: NNE 9.3 km/h
Wind: NNE 9.3 km/h
Temperature: 25°C
Dew Point: 11°C
Humidity: 42%
Barometer: 1016 hPa
Visibility: More than 10 km
Cloud details: Clear
LGAV 212350Z 02005KT CAVOK 25/11 Q1016 NOSIG
LGAD - Andravida (civ/A, Greece
Distance from station: W 124 km
Updated: 22-07-2019 02:50
Clear  
Clear  
   Wind: Calm
Wind: Calm
Temperature: 21°C
Dew Point: 18°C
Humidity: 83%
Barometer: 1017 hPa
Visibility: More than 10 km
Cloud details: Clear
LGAD 212350Z 00000KT CAVOK 21/18 Q1017
LGKL - Kalamata (hel-Af, Greece
Distance from station: SSW 124 km
Updated: 22-07-2019 02:50
Clear  
Clear  
   Wind: North 14.8 km/h
Wind: North 14.8 km/h
Temperature: 23°C
Dew Point: 12°C
Humidity: 50%
Barometer: 1016 hPa
Visibility: More than 10 km
Cloud details: Clear
LGKL 212350Z 01008KT CAVOK 23/12 Q1016
LGBL - Nea Anchialos, Greece
Distance from station: N 129 km
Updated: 22-07-2019 02:50
Clear  
Clear  
   Wind: West 7.4 km/h
Wind: West 7.4 km/h
Temperature: 21°C
Dew Point: 14°C
Humidity: 64%
Barometer: 1017 hPa
Visibility: More than 10 km
Cloud details: Clear
LGBL 212350Z 26004KT CAVOK 21/14 Q1017

Script developed by  Saratoga-weather.org Adapted for the template by  Weerstation Leuven

You find our weather info also at:

European Weather Network

Weather Underground

AWEKAS

Citizen Weather Observer Program (CWOP)

HAMweather, WeatherForYou, PWS Weather

UK Metoffice

Equipment we use:

Weather-station
Davis Wireless Vantage Pro2

Davis Wireless Vantage Pro2